createdAt,value
2023-01-31T00:00:21.074Z,1033.01
2023-01-31T00:01:21.661Z,1032.97
2023-01-31T00:02:22.320Z,1033.02
2023-01-31T00:03:22.966Z,1032.93
2023-01-31T00:04:23.563Z,1032.90
2023-01-31T00:05:24.161Z,1032.97
2023-01-31T00:06:25.615Z,1032.88
2023-01-31T00:07:26.245Z,1032.90
2023-01-31T00:08:26.845Z,1032.86
2023-01-31T00:09:27.430Z,1032.81
2023-01-31T00:10:28.025Z,1032.87
2023-01-31T00:11:28.674Z,1032.83
2023-01-31T00:12:29.355Z,1032.80
2023-01-31T00:13:29.984Z,1032.82
2023-01-31T00:14:30.586Z,1032.78
2023-01-31T00:15:31.210Z,1032.86
2023-01-31T00:16:31.805Z,1032.83
2023-01-31T00:17:32.398Z,1032.89
2023-01-31T00:18:33.009Z,1032.85
2023-01-31T00:19:33.593Z,1032.83
2023-01-31T00:20:34.759Z,1032.83
2023-01-31T00:21:36.069Z,1032.84
2023-01-31T00:22:37.167Z,1032.78
2023-01-31T00:23:38.048Z,1032.81
2023-01-31T00:24:39.076Z,1032.80
2023-01-31T00:25:39.797Z,1032.81
2023-01-31T00:26:40.490Z,1032.82
2023-01-31T00:27:41.066Z,1032.79
2023-01-31T00:28:41.688Z,1032.78
2023-01-31T00:29:42.319Z,1032.82
2023-01-31T00:30:43.063Z,1032.84
2023-01-31T00:31:43.839Z,1032.76
2023-01-31T00:32:45.313Z,1032.81
2023-01-31T00:33:46.128Z,1032.75
2023-01-31T00:34:46.771Z,1032.79
2023-01-31T00:35:47.368Z,1032.82
2023-01-31T00:36:47.969Z,1032.77
2023-01-31T00:37:48.563Z,1032.85
2023-01-31T00:38:49.159Z,1032.77
2023-01-31T00:39:49.763Z,1032.83
2023-01-31T00:40:50.367Z,1032.82
2023-01-31T00:41:50.962Z,1032.73
2023-01-31T00:42:51.555Z,1032.77
2023-01-31T00:43:52.161Z,1032.76
2023-01-31T00:44:52.749Z,1032.81
2023-01-31T00:45:53.351Z,1032.92
2023-01-31T00:46:54.002Z,1032.84
2023-01-31T00:47:54.615Z,1032.81
2023-01-31T00:48:55.266Z,1032.84
2023-01-31T00:49:55.886Z,1032.88
2023-01-31T00:50:56.514Z,1032.95
2023-01-31T00:51:57.115Z,1032.84
2023-01-31T00:52:57.711Z,1032.92
2023-01-31T00:53:58.312Z,1032.82
2023-01-31T00:54:58.925Z,1032.78
2023-01-31T00:55:59.533Z,1032.79
2023-01-31T00:57:00.129Z,1032.81
2023-01-31T00:58:00.751Z,1032.77
2023-01-31T00:59:01.437Z,1032.74
2023-01-31T01:00:02.038Z,1032.75
2023-01-31T01:01:02.668Z,1032.81
2023-01-31T01:02:04.128Z,1032.74
2023-01-31T01:03:04.786Z,1032.71
2023-01-31T01:04:05.380Z,1032.73
2023-01-31T01:05:06.041Z,1032.68
2023-01-31T01:06:07.481Z,1032.69
2023-01-31T01:07:08.073Z,1032.70
2023-01-31T01:08:08.676Z,1032.69
2023-01-31T01:09:09.268Z,1032.73
2023-01-31T01:10:09.864Z,1032.68
2023-01-31T01:11:10.467Z,1032.60
2023-01-31T01:12:11.070Z,1032.63
2023-01-31T01:13:11.666Z,1032.65
2023-01-31T01:14:12.262Z,1032.69
2023-01-31T01:15:12.862Z,1032.69
2023-01-31T01:16:13.491Z,1032.66
2023-01-31T01:17:14.071Z,1032.67
2023-01-31T01:18:14.661Z,1032.69
2023-01-31T01:19:15.278Z,1032.67
2023-01-31T01:20:15.875Z,1032.65
2023-01-31T01:21:16.468Z,1032.61
2023-01-31T01:22:17.067Z,1032.60
2023-01-31T01:23:17.679Z,1032.58
2023-01-31T01:24:18.264Z,1032.62
2023-01-31T01:25:19.381Z,1032.66
2023-01-31T01:26:20.194Z,1032.68
2023-01-31T01:27:20.833Z,1032.67
2023-01-31T01:28:21.428Z,1032.63
2023-01-31T01:29:22.094Z,1032.72
2023-01-31T01:30:22.696Z,1032.65
2023-01-31T01:31:23.329Z,1032.64
2023-01-31T01:32:23.974Z,1032.65
2023-01-31T01:33:24.621Z,1032.69
2023-01-31T01:34:25.227Z,1032.67
2023-01-31T01:35:25.819Z,1032.64
2023-01-31T01:36:26.411Z,1032.61
2023-01-31T01:37:27.007Z,1032.56
2023-01-31T01:38:27.606Z,1032.67
2023-01-31T01:39:29.056Z,1032.63
2023-01-31T01:40:30.055Z,1032.67
2023-01-31T01:41:30.986Z,1032.64
2023-01-31T01:42:31.236Z,1032.69
2023-01-31T01:43:31.889Z,1032.68
2023-01-31T01:44:32.848Z,1032.60
2023-01-31T01:45:33.558Z,1032.63
2023-01-31T01:46:34.173Z,1032.64
2023-01-31T01:47:34.785Z,1032.65
2023-01-31T01:48:35.383Z,1032.64
2023-01-31T01:49:36.393Z,1032.70
2023-01-31T01:50:37.038Z,1032.65
2023-01-31T01:51:37.616Z,1032.66
2023-01-31T01:52:38.211Z,1032.65
2023-01-31T01:53:38.822Z,1032.65
2023-01-31T01:54:39.414Z,1032.66
2023-01-31T01:55:40.814Z,1032.71
2023-01-31T01:56:41.417Z,1032.62
2023-01-31T01:57:42.091Z,1032.68
2023-01-31T01:58:42.693Z,1032.68
2023-01-31T01:59:43.288Z,1032.61
2023-01-31T02:00:43.930Z,1032.64
2023-01-31T02:01:44.559Z,1032.66
2023-01-31T02:02:45.144Z,1032.62
2023-01-31T02:03:45.746Z,1032.67
2023-01-31T02:04:46.341Z,1032.71
2023-01-31T02:05:46.937Z,1032.63
2023-01-31T02:06:47.534Z,1032.67
2023-01-31T02:07:48.129Z,1032.75
2023-01-31T02:08:48.723Z,1032.65
2023-01-31T02:09:50.178Z,1032.64
2023-01-31T02:10:50.846Z,1032.67
2023-01-31T02:11:51.446Z,1032.56
2023-01-31T02:12:52.040Z,1032.61
2023-01-31T02:13:52.635Z,1032.65
2023-01-31T02:14:53.233Z,1032.67
2023-01-31T02:15:53.836Z,1032.58
2023-01-31T02:16:54.526Z,1032.62
2023-01-31T02:17:55.136Z,1032.64
2023-01-31T02:18:55.737Z,1032.69
2023-01-31T02:19:56.331Z,1032.68
2023-01-31T02:20:56.930Z,1032.65
2023-01-31T02:21:57.525Z,1032.70
2023-01-31T02:22:58.119Z,1032.66
2023-01-31T02:23:58.759Z,1032.74
2023-01-31T02:24:59.352Z,1032.73
2023-01-31T02:25:59.987Z,1032.67
2023-01-31T02:27:00.588Z,1032.69
2023-01-31T02:28:01.215Z,1032.77
2023-01-31T02:29:01.791Z,1032.75
2023-01-31T02:30:02.403Z,1032.75
2023-01-31T02:31:03.091Z,1032.74
2023-01-31T02:32:04.553Z,1032.75
2023-01-31T02:33:05.140Z,1032.64
2023-01-31T02:34:05.745Z,1032.68
2023-01-31T02:35:06.395Z,1032.69
2023-01-31T02:36:06.988Z,1032.71
2023-01-31T02:37:07.580Z,1032.67
2023-01-31T02:38:08.175Z,1032.63
2023-01-31T02:39:08.776Z,1032.68
2023-01-31T02:40:09.436Z,1032.70
2023-01-31T02:41:10.044Z,1032.66
2023-01-31T02:42:10.638Z,1032.64
2023-01-31T02:43:12.092Z,1032.64
2023-01-31T02:44:12.734Z,1032.62
2023-01-31T02:45:13.344Z,1032.59
2023-01-31T02:46:13.940Z,1032.57
2023-01-31T02:47:14.535Z,1032.60
2023-01-31T02:48:15.135Z,1032.65
2023-01-31T02:49:15.728Z,1032.58
2023-01-31T02:50:16.331Z,1032.67
2023-01-31T02:51:16.925Z,1032.67
2023-01-31T02:52:17.526Z,1032.62
2023-01-31T02:53:18.110Z,1032.67
2023-01-31T02:54:18.714Z,1032.61
2023-01-31T02:55:19.554Z,1032.68
2023-01-31T02:56:20.651Z,1032.70
2023-01-31T02:57:21.244Z,1032.65
2023-01-31T02:58:21.846Z,1032.68
2023-01-31T02:59:23.255Z,1032.60
2023-01-31T03:00:23.868Z,1032.65
2023-01-31T03:01:24.589Z,1032.63
2023-01-31T03:02:25.324Z,1032.60
2023-01-31T03:03:25.945Z,1032.65
2023-01-31T03:04:26.596Z,1032.64
2023-01-31T03:05:27.586Z,1032.66
2023-01-31T03:06:28.195Z,1032.62
2023-01-31T03:07:28.796Z,1032.66
2023-01-31T03:08:30.197Z,1032.66
2023-01-31T03:09:30.796Z,1032.65
2023-01-31T03:10:31.399Z,1032.69
2023-01-31T03:11:32.069Z,1032.67
2023-01-31T03:12:32.954Z,1032.64
2023-01-31T03:13:33.549Z,1032.64
2023-01-31T03:14:34.131Z,1032.59
2023-01-31T03:15:34.769Z,1032.66
2023-01-31T03:16:35.427Z,1032.61
2023-01-31T03:17:36.309Z,1032.61
2023-01-31T03:18:36.970Z,1032.64
2023-01-31T03:19:37.565Z,1032.63
2023-01-31T03:20:38.154Z,1032.60
2023-01-31T03:21:38.750Z,1032.65
2023-01-31T03:22:39.350Z,1032.70
2023-01-31T03:23:39.953Z,1032.60
2023-01-31T03:24:40.570Z,1032.64
2023-01-31T03:25:41.174Z,1032.62
2023-01-31T03:26:41.831Z,1032.63
2023-01-31T03:27:42.479Z,1032.54
2023-01-31T03:28:43.169Z,1032.59
2023-01-31T03:29:43.758Z,1032.53
2023-01-31T03:30:44.509Z,1032.54
2023-01-31T03:31:45.302Z,1032.53
2023-01-31T03:32:45.860Z,1032.57
2023-01-31T03:33:46.452Z,1032.58
2023-01-31T03:34:47.046Z,1032.57
2023-01-31T03:35:47.647Z,1032.64
2023-01-31T03:36:48.245Z,1032.62
2023-01-31T03:37:48.837Z,1032.58
2023-01-31T03:38:49.435Z,1032.52
2023-01-31T03:39:50.033Z,1032.51
2023-01-31T03:40:50.636Z,1032.49
2023-01-31T03:41:51.225Z,1032.52
2023-01-31T03:42:51.820Z,1032.45
2023-01-31T03:43:52.465Z,1032.50
2023-01-31T03:44:53.065Z,1032.50
2023-01-31T03:45:53.705Z,1032.48
2023-01-31T03:46:54.358Z,1032.40
2023-01-31T03:47:54.953Z,1032.47
2023-01-31T03:48:55.548Z,1032.48
2023-01-31T03:49:56.147Z,1032.47
2023-01-31T03:50:56.748Z,1032.43
2023-01-31T03:51:57.339Z,1032.44
2023-01-31T03:52:57.941Z,1032.55
2023-01-31T03:53:58.545Z,1032.40
2023-01-31T03:54:59.147Z,1032.43
2023-01-31T03:55:59.738Z,1032.38
2023-01-31T03:57:00.340Z,1032.44
2023-01-31T03:58:00.944Z,1032.35
2023-01-31T03:59:01.549Z,1032.43
2023-01-31T04:00:02.993Z,1032.39
2023-01-31T04:01:03.589Z,1032.41
2023-01-31T04:02:04.179Z,1032.40
2023-01-31T04:03:04.823Z,1032.40
2023-01-31T04:04:05.408Z,1032.46
2023-01-31T04:05:06.000Z,1032.44
2023-01-31T04:06:06.607Z,1032.48
2023-01-31T04:07:08.000Z,1032.44
2023-01-31T04:08:08.599Z,1032.41
2023-01-31T04:09:09.250Z,1032.41
2023-01-31T04:10:09.836Z,1032.45
2023-01-31T04:11:10.445Z,1032.45
2023-01-31T04:12:11.489Z,1032.44
2023-01-31T04:13:12.611Z,1032.44
2023-01-31T04:14:13.649Z,1032.54
2023-01-31T04:15:13.879Z,1032.50
2023-01-31T04:16:14.488Z,1032.53
2023-01-31T04:17:15.077Z,1032.57
2023-01-31T04:18:15.676Z,1032.61
2023-01-31T04:19:16.265Z,1032.51
2023-01-31T04:20:16.859Z,1032.48
2023-01-31T04:21:17.462Z,1032.49
2023-01-31T04:22:18.056Z,1032.54
2023-01-31T04:23:18.647Z,1032.52
2023-01-31T04:24:19.250Z,1032.61
2023-01-31T04:25:20.189Z,1032.56
2023-01-31T04:26:20.948Z,1032.51
2023-01-31T04:27:21.578Z,1032.61
2023-01-31T04:28:22.247Z,1032.55
2023-01-31T04:29:22.852Z,1032.58
2023-01-31T04:30:23.447Z,1032.59
2023-01-31T04:31:24.118Z,1032.60
2023-01-31T04:32:24.741Z,1032.50
2023-01-31T04:33:25.332Z,1032.55
2023-01-31T04:34:25.941Z,1032.56
2023-01-31T04:35:26.534Z,1032.60
2023-01-31T04:36:27.128Z,1032.52
2023-01-31T04:37:27.731Z,1032.57
2023-01-31T04:38:28.934Z,1032.61
2023-01-31T04:39:29.528Z,1032.57
2023-01-31T04:40:30.125Z,1032.55
2023-01-31T04:41:30.736Z,1032.51
2023-01-31T04:42:32.327Z,1032.59
2023-01-31T04:43:33.133Z,1032.50
2023-01-31T04:44:33.749Z,1032.50
2023-01-31T04:45:34.346Z,1032.51
2023-01-31T04:46:34.965Z,1032.58
2023-01-31T04:47:35.623Z,1032.53
2023-01-31T04:48:36.705Z,1032.52
2023-01-31T04:49:39.169Z,1032.53
2023-01-31T04:50:39.770Z,1032.56
2023-01-31T04:51:40.367Z,1032.48
2023-01-31T04:52:40.965Z,1032.55
2023-01-31T04:53:58.125Z,1032.46
2023-01-31T04:54:58.725Z,1032.46
2023-01-31T04:55:59.386Z,1032.46
2023-01-31T04:56:59.982Z,1032.52
2023-01-31T04:58:00.573Z,1032.43
2023-01-31T04:59:01.166Z,1032.43
2023-01-31T05:00:01.754Z,1032.45
2023-01-31T05:01:02.404Z,1032.55
2023-01-31T05:02:03.031Z,1032.57
2023-01-31T05:03:03.709Z,1032.55
2023-01-31T05:04:04.274Z,1032.54
2023-01-31T05:05:04.877Z,1032.54
2023-01-31T05:06:05.738Z,1032.56
2023-01-31T05:07:06.778Z,1032.56
2023-01-31T05:08:07.743Z,1032.58
2023-01-31T05:09:08.416Z,1032.60
2023-01-31T05:10:09.050Z,1032.57
2023-01-31T05:11:09.743Z,1032.59
2023-01-31T05:12:10.363Z,1032.65
2023-01-31T05:13:10.970Z,1032.64
2023-01-31T05:14:11.570Z,1032.64
2023-01-31T05:15:13.014Z,1032.63
2023-01-31T05:16:13.678Z,1032.59
2023-01-31T05:17:14.267Z,1032.62
2023-01-31T05:18:14.861Z,1032.52
2023-01-31T05:19:15.450Z,1032.58
2023-01-31T05:20:16.041Z,1032.66
2023-01-31T05:21:16.639Z,1032.59
2023-01-31T05:22:17.231Z,1032.68
2023-01-31T05:23:17.816Z,1032.63
2023-01-31T05:24:18.417Z,1032.54
2023-01-31T05:25:19.174Z,1032.63
2023-01-31T05:26:19.934Z,1032.63
2023-01-31T05:27:20.527Z,1032.65
2023-01-31T05:28:21.382Z,1032.65
2023-01-31T05:29:22.126Z,1032.71
2023-01-31T05:30:22.785Z,1032.68
2023-01-31T05:31:23.567Z,1032.67
2023-01-31T05:32:24.169Z,1032.68
2023-01-31T05:33:24.759Z,1032.65
2023-01-31T05:34:25.375Z,1032.63
2023-01-31T05:35:25.957Z,1032.70
2023-01-31T05:36:26.555Z,1032.67
2023-01-31T05:37:27.146Z,1032.61
2023-01-31T05:38:27.729Z,1032.67
2023-01-31T05:39:28.317Z,1032.70
2023-01-31T05:40:28.909Z,1032.68
2023-01-31T05:41:29.493Z,1032.71
2023-01-31T05:42:30.091Z,1032.72
2023-01-31T05:43:31.261Z,1032.72
2023-01-31T05:44:32.182Z,1032.68
2023-01-31T05:45:32.787Z,1032.67
2023-01-31T05:46:33.386Z,1032.76
2023-01-31T05:47:33.979Z,1032.78
2023-01-31T05:48:34.576Z,1032.78
2023-01-31T05:49:35.167Z,1032.76
2023-01-31T05:50:35.755Z,1032.73
2023-01-31T05:51:36.501Z,1032.75
2023-01-31T05:52:37.093Z,1032.77
2023-01-31T05:53:37.687Z,1032.70
2023-01-31T05:54:38.330Z,1032.73
2023-01-31T05:55:38.928Z,1032.77
2023-01-31T05:56:39.517Z,1032.70
2023-01-31T05:57:40.159Z,1032.76
2023-01-31T05:58:40.753Z,1032.74
2023-01-31T05:59:42.147Z,1032.76
2023-01-31T06:00:42.742Z,1032.70
2023-01-31T06:01:43.365Z,1032.69
2023-01-31T06:02:43.947Z,1032.69
2023-01-31T06:03:44.546Z,1032.71
2023-01-31T06:04:45.160Z,1032.76
2023-01-31T06:05:45.794Z,1032.73
2023-01-31T06:06:46.377Z,1032.77
2023-01-31T06:07:46.960Z,1032.70
2023-01-31T06:08:47.559Z,1032.76
2023-01-31T06:09:48.150Z,1032.79
2023-01-31T06:10:48.748Z,1032.75
2023-01-31T06:11:49.398Z,1032.77
2023-01-31T06:12:50.086Z,1032.79
2023-01-31T06:13:50.674Z,1032.73
2023-01-31T06:14:51.266Z,1032.79
2023-01-31T06:15:52.671Z,1032.79
2023-01-31T06:16:53.430Z,1032.75
2023-01-31T06:17:54.058Z,1032.81
2023-01-31T06:18:54.637Z,1032.80
2023-01-31T06:19:55.224Z,1032.82
2023-01-31T06:20:55.813Z,1032.83
2023-01-31T06:21:56.421Z,1032.81
2023-01-31T06:22:57.351Z,1032.82
2023-01-31T06:23:58.531Z,1032.80
2023-01-31T06:24:58.617Z,1032.89
2023-01-31T06:25:59.535Z,1032.81
2023-01-31T06:27:00.118Z,1032.82
2023-01-31T06:28:00.693Z,1032.81
2023-01-31T06:29:01.298Z,1032.85
2023-01-31T06:30:01.952Z,1032.81
2023-01-31T06:31:02.855Z,1032.83
2023-01-31T06:32:03.280Z,1032.79
2023-01-31T06:33:03.919Z,1032.84
2023-01-31T06:34:04.519Z,1032.81
2023-01-31T06:35:05.966Z,1032.91
2023-01-31T06:36:06.628Z,1032.79
2023-01-31T06:37:07.213Z,1032.90
2023-01-31T06:38:07.799Z,1032.85
2023-01-31T06:46:57.623Z,1032.84
2023-01-31T06:47:58.226Z,1032.93
2023-01-31T06:48:58.825Z,1032.92
2023-01-31T06:49:59.481Z,1032.83
2023-01-31T06:51:00.098Z,1032.83
2023-01-31T06:52:00.744Z,1032.87
2023-01-31T06:53:01.347Z,1032.83
2023-01-31T06:54:01.947Z,1032.88
2023-01-31T06:55:02.555Z,1032.86
2023-01-31T06:56:03.132Z,1032.84
2023-01-31T06:57:03.724Z,1032.81
2023-01-31T06:58:04.373Z,1032.87
2023-01-31T06:59:04.960Z,1033.01
2023-01-31T07:00:05.559Z,1032.96
2023-01-31T07:01:06.145Z,1032.92
2023-01-31T07:02:06.736Z,1032.90
2023-01-31T07:03:07.321Z,1032.90
2023-01-31T07:04:07.924Z,1032.93
2023-01-31T07:10:14.873Z,1033.00
2023-01-31T07:11:15.465Z,1032.95
2023-01-31T07:12:16.052Z,1033.03
2023-01-31T07:13:16.641Z,1033.00
2023-01-31T07:14:17.231Z,1033.11
2023-01-31T07:15:18.372Z,1033.06
2023-01-31T07:16:19.249Z,1033.01
2023-01-31T07:17:19.813Z,1033.04
2023-01-31T07:18:20.401Z,1033.00
2023-01-31T07:19:20.988Z,1033.02
2023-01-31T07:20:21.585Z,1033.08
2023-01-31T07:21:22.181Z,1033.12
2023-01-31T07:22:22.851Z,1033.09
2023-01-31T07:23:23.499Z,1033.14
2023-01-31T07:24:24.108Z,1033.09
2023-01-31T07:25:24.682Z,1033.16
2023-01-31T07:26:25.304Z,1033.11
2023-01-31T07:37:37.994Z,1033.11
2023-01-31T07:38:38.591Z,1033.22
2023-01-31T07:39:39.236Z,1033.20
2023-01-31T07:40:39.944Z,1033.25
2023-01-31T07:41:40.528Z,1033.25
2023-01-31T07:42:41.193Z,1033.23
2023-01-31T07:43:41.789Z,1033.30
2023-01-31T07:44:42.374Z,1033.24
2023-01-31T07:45:43.101Z,1033.18
2023-01-31T07:46:43.710Z,1033.23
2023-01-31T07:47:44.313Z,1033.22
2023-01-31T07:52:16.455Z,1033.36
2023-01-31T07:53:17.053Z,1033.36
2023-01-31T07:54:17.658Z,1033.36
2023-01-31T07:55:18.802Z,1033.35
2023-01-31T07:56:19.704Z,1033.33
2023-01-31T07:57:20.295Z,1033.35
2023-01-31T07:58:20.992Z,1033.30
2023-01-31T07:59:21.605Z,1033.45
2023-01-31T08:00:22.182Z,1033.41
2023-01-31T08:01:22.963Z,1033.39
2023-01-31T08:02:23.613Z,1033.38
2023-01-31T08:03:24.276Z,1033.48
2023-01-31T08:04:24.870Z,1033.46
2023-01-31T08:05:25.532Z,1033.46
2023-01-31T08:06:26.125Z,1033.45
2023-01-31T08:07:27.167Z,1033.45
2023-01-31T08:09:53.780Z,1033.49
2023-01-31T08:10:54.374Z,1033.52
2023-01-31T08:11:54.975Z,1033.49
2023-01-31T08:12:55.571Z,1033.56
2023-01-31T08:13:56.165Z,1033.50
2023-01-31T08:15:09.370Z,1033.57
2023-01-31T08:16:09.965Z,1033.57
2023-01-31T08:17:10.616Z,1033.55
2023-01-31T08:18:11.215Z,1033.61
2023-01-31T08:19:11.820Z,1033.57
2023-01-31T08:20:13.211Z,1033.60
2023-01-31T08:21:13.882Z,1033.63
2023-01-31T08:31:41.298Z,1033.75
2023-01-31T08:32:41.769Z,1033.72
2023-01-31T08:33:42.422Z,1033.73
2023-01-31T08:34:43.500Z,1033.71
2023-01-31T08:35:44.147Z,1033.75
2023-01-31T08:36:44.787Z,1033.77
2023-01-31T08:37:45.402Z,1033.78
2023-01-31T08:38:46.441Z,1033.70
2023-01-31T08:39:47.082Z,1033.76
2023-01-31T08:40:47.784Z,1033.70
2023-01-31T08:41:48.376Z,1033.78
2023-01-31T08:42:49.027Z,1033.73
2023-01-31T08:43:58.111Z,1033.74
2023-01-31T08:44:51.222Z,1033.77
2023-01-31T08:45:51.816Z,1033.77
2023-01-31T08:46:53.394Z,1033.75
2023-01-31T08:47:53.985Z,1033.79
2023-01-31T08:48:55.373Z,1033.72
2023-01-31T08:49:56.006Z,1033.86
2023-01-31T08:50:56.624Z,1033.80
2023-01-31T08:51:57.227Z,1033.79
2023-01-31T08:52:57.827Z,1033.86
2023-01-31T08:53:58.426Z,1033.72
2023-01-31T09:02:32.476Z,1033.92
2023-01-31T09:03:33.623Z,1033.86
2023-01-31T09:04:34.227Z,1033.98
2023-01-31T09:05:34.828Z,1034.01
2023-01-31T09:06:35.426Z,1033.90
2023-01-31T09:07:36.009Z,1033.94
2023-01-31T09:08:36.619Z,1034.04
2023-01-31T09:09:37.226Z,1034.01
2023-01-31T09:10:37.814Z,1034.06
2023-01-31T09:11:38.559Z,1034.02
2023-01-31T09:12:39.486Z,1034.02
2023-01-31T09:13:40.084Z,1034.06
2023-01-31T09:14:40.730Z,1034.01
2023-01-31T09:15:41.332Z,1034.17
2023-01-31T09:16:43.587Z,1034.08
2023-01-31T09:17:43.533Z,1034.08
2023-01-31T09:18:44.136Z,1034.08
2023-01-31T09:19:44.721Z,1034.16
2023-01-31T09:20:45.311Z,1034.12
2023-01-31T09:21:45.903Z,1034.14
2023-01-31T09:22:46.508Z,1034.08
2023-01-31T09:23:47.103Z,1034.18
2023-01-31T09:24:47.688Z,1034.18
2023-01-31T09:25:48.598Z,1034.14
2023-01-31T09:26:49.407Z,1034.16
2023-01-31T09:27:50.037Z,1034.16
2023-01-31T09:28:50.623Z,1034.21
2023-01-31T09:29:51.233Z,1034.14
2023-01-31T09:30:51.846Z,1034.18
2023-01-31T09:31:52.474Z,1034.25
2023-01-31T09:32:53.070Z,1034.29
2023-01-31T09:33:53.669Z,1034.18
2023-01-31T09:34:54.272Z,1034.26
2023-01-31T09:35:54.871Z,1034.29
2023-01-31T09:36:55.468Z,1034.27
2023-01-31T09:37:56.064Z,1034.28
2023-01-31T09:38:56.959Z,1034.27
2023-01-31T09:39:57.340Z,1034.26
2023-01-31T09:40:57.937Z,1034.29
2023-01-31T09:41:58.533Z,1034.22
2023-01-31T09:42:59.186Z,1034.30
2023-01-31T09:43:59.782Z,1034.29
2023-01-31T09:45:00.380Z,1034.29
2023-01-31T09:46:00.988Z,1034.27
2023-01-31T09:47:01.648Z,1034.30
2023-01-31T09:48:02.299Z,1034.34
2023-01-31T09:49:02.971Z,1034.34
2023-01-31T09:50:03.571Z,1034.31
2023-01-31T09:51:04.230Z,1034.28
2023-01-31T09:52:04.834Z,1034.32
2023-01-31T09:53:05.419Z,1034.27
2023-01-31T09:54:22.598Z,1034.25
2023-01-31T09:55:23.398Z,1034.28
2023-01-31T09:56:24.031Z,1034.29
2023-01-31T09:57:24.630Z,1034.32
2023-01-31T09:58:25.224Z,1034.34
2023-01-31T09:59:25.826Z,1034.35
2023-01-31T10:00:26.428Z,1034.35
2023-01-31T10:01:27.035Z,1034.31
2023-01-31T10:02:28.307Z,1034.38
2023-01-31T10:03:29.500Z,1034.36
2023-01-31T10:04:29.692Z,1034.31
2023-01-31T10:05:30.736Z,1034.31
2023-01-31T10:06:31.717Z,1034.33
2023-01-31T10:07:32.328Z,1034.30
2023-01-31T10:08:33.151Z,1034.34
2023-01-31T10:09:33.752Z,1034.22
2023-01-31T10:10:34.357Z,1034.24
2023-01-31T10:11:36.504Z,1034.27
2023-01-31T10:12:36.879Z,1034.35
2023-01-31T10:13:37.474Z,1034.23
2023-01-31T10:14:38.076Z,1034.24
2023-01-31T10:15:38.682Z,1034.23
2023-01-31T10:16:39.320Z,1034.25
2023-01-31T10:17:39.956Z,1034.21
2023-01-31T10:18:40.575Z,1034.28
2023-01-31T10:19:41.176Z,1034.23
2023-01-31T10:20:41.785Z,1034.22
2023-01-31T10:21:42.387Z,1034.22
2023-01-31T10:22:42.999Z,1034.25
2023-01-31T10:23:43.576Z,1034.26
2023-01-31T10:24:44.176Z,1034.29
2023-01-31T10:25:44.775Z,1034.24
2023-01-31T10:26:45.609Z,1034.18
2023-01-31T10:27:46.383Z,1034.18
2023-01-31T10:28:46.986Z,1034.24
2023-01-31T10:29:47.581Z,1034.28
2023-01-31T10:30:48.192Z,1034.30
2023-01-31T10:31:48.839Z,1034.27
2023-01-31T10:32:49.432Z,1034.29
2023-01-31T10:33:50.029Z,1034.23
2023-01-31T10:34:51.478Z,1034.24
2023-01-31T10:35:52.150Z,1034.30
2023-01-31T10:36:52.758Z,1034.30
2023-01-31T10:37:54.250Z,1034.28
2023-01-31T10:38:54.849Z,1034.34
2023-01-31T10:39:55.446Z,1034.28
2023-01-31T10:40:56.050Z,1034.32
2023-01-31T10:41:56.646Z,1034.34
2023-01-31T10:42:57.249Z,1034.31
2023-01-31T10:43:57.848Z,1034.34
2023-01-31T10:44:59.251Z,1034.28
2023-01-31T10:46:00.681Z,1034.34
2023-01-31T10:47:01.307Z,1034.38
2023-01-31T10:48:01.986Z,1034.42
2023-01-31T10:49:02.649Z,1034.35
2023-01-31T10:50:03.308Z,1034.35
2023-01-31T10:51:04.005Z,1034.44
2023-01-31T10:52:04.648Z,1034.40
2023-01-31T10:53:05.270Z,1034.39
2023-01-31T10:54:05.882Z,1034.39
2023-01-31T10:55:07.315Z,1034.37
2023-01-31T10:56:07.918Z,1034.42
2023-01-31T10:57:09.323Z,1034.44
2023-01-31T10:58:09.915Z,1034.37
2023-01-31T10:59:10.510Z,1034.47
2023-01-31T11:00:11.112Z,1034.43
2023-01-31T11:01:11.748Z,1034.35
2023-01-31T11:02:12.429Z,1034.40
2023-01-31T11:03:13.031Z,1034.32
2023-01-31T11:04:13.700Z,1034.33
2023-01-31T11:05:14.301Z,1034.38
2023-01-31T11:06:14.895Z,1034.37
2023-01-31T11:07:15.497Z,1034.35
2023-01-31T11:08:16.100Z,1034.36
2023-01-31T11:09:16.700Z,1034.42
2023-01-31T11:10:17.353Z,1034.42
2023-01-31T11:11:17.975Z,1034.35
2023-01-31T11:12:18.566Z,1034.35
2023-01-31T11:13:19.169Z,1034.37
2023-01-31T11:14:19.768Z,1034.30
2023-01-31T11:15:20.377Z,1034.32
2023-01-31T11:16:20.992Z,1034.26
2023-01-31T11:17:21.578Z,1034.28
2023-01-31T11:18:22.216Z,1034.32
2023-01-31T11:19:22.878Z,1034.34
2023-01-31T11:20:23.827Z,1034.33
2023-01-31T11:21:24.570Z,1034.29
2023-01-31T11:22:25.177Z,1034.31
2023-01-31T11:23:25.831Z,1034.26
2023-01-31T11:24:26.438Z,1034.29
2023-01-31T11:25:27.039Z,1034.28
2023-01-31T11:26:27.741Z,1034.22
2023-01-31T11:27:28.355Z,1034.28
2023-01-31T11:28:28.957Z,1034.17
2023-01-31T11:29:29.557Z,1034.21
2023-01-31T11:30:30.246Z,1034.17
2023-01-31T11:31:30.927Z,1034.17
2023-01-31T11:32:31.528Z,1034.17
2023-01-31T11:33:32.129Z,1034.21
2023-01-31T11:34:32.728Z,1034.16
2023-01-31T11:35:33.426Z,1034.17
2023-01-31T11:36:34.037Z,1034.13
2023-01-31T11:37:34.950Z,1034.10
2023-01-31T11:38:35.623Z,1034.10
2023-01-31T11:39:36.221Z,1034.10
2023-01-31T11:40:36.910Z,1034.03
2023-01-31T11:41:37.584Z,1034.07
2023-01-31T11:42:38.287Z,1034.09
2023-01-31T11:43:38.883Z,1033.99
2023-01-31T11:44:39.488Z,1034.02
2023-01-31T11:45:40.087Z,1033.99
2023-01-31T11:46:40.687Z,1033.95
2023-01-31T11:47:41.302Z,1033.96
2023-01-31T11:48:41.940Z,1033.92
2023-01-31T11:49:42.532Z,1033.95
2023-01-31T11:50:43.139Z,1033.89
2023-01-31T11:51:43.727Z,1033.83
2023-01-31T11:52:44.343Z,1033.87
2023-01-31T11:53:44.945Z,1033.87
2023-01-31T11:54:46.348Z,1033.77
2023-01-31T11:55:46.946Z,1033.73
2023-01-31T11:56:47.548Z,1033.79
2023-01-31T11:57:48.147Z,1033.77
2023-01-31T11:58:48.748Z,1033.69
2023-01-31T11:59:50.151Z,1033.73
2023-01-31T12:00:51.559Z,1033.75
2023-01-31T12:01:52.173Z,1033.66
2023-01-31T12:03:08.688Z,1033.65
2023-01-31T12:04:08.032Z,1033.65
2023-01-31T12:05:08.608Z,1033.66
2023-01-31T12:06:09.215Z,1033.64
2023-01-31T12:07:23.354Z,1033.66
2023-01-31T12:08:23.953Z,1033.59
2023-01-31T12:09:24.540Z,1033.54
2023-01-31T12:10:25.144Z,1033.56
2023-01-31T12:11:39.376Z,1033.54
2023-01-31T12:12:39.978Z,1033.53
2023-01-31T12:13:40.571Z,1033.53
2023-01-31T12:14:41.174Z,1033.47
2023-01-31T12:15:42.629Z,1033.53
2023-01-31T12:16:43.313Z,1033.44
2023-01-31T12:17:43.917Z,1033.53
2023-01-31T12:18:44.530Z,1033.46
2023-01-31T12:19:45.183Z,1033.49
2023-01-31T12:20:45.790Z,1033.54
2023-01-31T12:21:46.387Z,1033.54
2023-01-31T12:22:47.051Z,1033.39
2023-01-31T12:23:49.416Z,1033.48
2023-01-31T12:27:48.723Z,1033.42
2023-01-31T12:28:49.320Z,1033.40
2023-01-31T12:30:03.423Z,1033.42
2023-01-31T12:33:28.923Z,1033.30
2023-01-31T12:34:29.555Z,1033.26
2023-01-31T12:35:31.002Z,1033.36
2023-01-31T12:36:31.603Z,1033.28
2023-01-31T12:37:32.224Z,1033.25
2023-01-31T12:38:32.928Z,1033.24
2023-01-31T12:39:33.602Z,1033.23
2023-01-31T12:40:34.204Z,1033.22
2023-01-31T12:41:34.811Z,1033.13
2023-01-31T12:42:35.402Z,1033.12
2023-01-31T12:43:36.006Z,1033.08
2023-01-31T12:45:04.532Z,1033.08
2023-01-31T12:46:18.395Z,1033.12
2023-01-31T12:47:18.986Z,1033.05
2023-01-31T12:48:19.595Z,1032.96
2023-01-31T12:49:20.245Z,1032.98
2023-01-31T12:50:21.689Z,1033.01
2023-01-31T12:51:22.296Z,1033.00
2023-01-31T12:52:22.955Z,1032.95
2023-01-31T12:53:23.563Z,1032.93
2023-01-31T12:54:24.161Z,1032.93
2023-01-31T12:55:24.761Z,1032.89
2023-01-31T12:56:25.358Z,1032.81
2023-01-31T12:57:25.954Z,1032.78
2023-01-31T12:58:26.553Z,1032.77
2023-01-31T12:59:40.363Z,1032.79
2023-01-31T13:00:40.983Z,1032.79
2023-01-31T13:01:41.642Z,1032.77
2023-01-31T13:02:42.253Z,1032.76
2023-01-31T13:03:42.859Z,1032.78
2023-01-31T13:04:43.463Z,1032.80
2023-01-31T13:05:44.123Z,1032.72
2023-01-31T13:06:44.722Z,1032.74